createdAt,value
2023-01-04T00:01:24.900Z,11.39
2023-01-04T00:03:51.769Z,11.39
2023-01-04T00:06:19.793Z,11.37
2023-01-04T00:08:46.831Z,11.36
2023-01-04T00:11:19.743Z,11.36
2023-01-04T00:13:47.753Z,11.35
2023-01-04T00:16:17.333Z,11.35
2023-01-04T00:18:44.442Z,11.36
2023-01-04T00:21:11.077Z,11.35
2023-01-04T00:23:39.368Z,11.33
2023-01-04T00:26:11.687Z,11.32
2023-01-04T00:28:38.992Z,11.32
2023-01-04T00:31:07.355Z,11.31
2023-01-04T00:33:34.496Z,11.30
2023-01-04T00:36:07.044Z,11.30
2023-01-04T00:38:34.228Z,11.33
2023-01-04T00:41:02.111Z,11.32
2023-01-04T00:43:29.320Z,11.30
2023-01-04T00:45:56.060Z,11.29
2023-01-04T00:48:24.148Z,11.29
2023-01-04T00:50:51.142Z,11.30
2023-01-04T00:53:18.943Z,11.33
2023-01-04T00:55:46.064Z,11.34
2023-01-04T00:58:12.761Z,11.34
2023-01-04T01:00:40.225Z,11.33
2023-01-04T01:03:07.370Z,11.29
2023-01-04T01:05:35.658Z,11.25
2023-01-04T01:08:21.998Z,11.24
2023-01-04T01:10:48.609Z,11.19
2023-01-04T01:13:15.322Z,11.17
2023-01-04T01:15:42.079Z,11.13
2023-01-04T01:18:08.694Z,11.10
2023-01-04T01:20:35.395Z,11.06
2023-01-04T01:23:02.155Z,11.05
2023-01-04T01:25:28.824Z,11.03
2023-01-04T01:27:55.420Z,11.01
2023-01-04T01:30:22.018Z,10.97
2023-01-04T01:32:48.664Z,10.98
2023-01-04T01:35:15.352Z,10.98
2023-01-04T01:37:41.978Z,10.96
2023-01-04T01:40:09.412Z,10.94
2023-01-04T01:42:36.031Z,10.93
2023-01-04T01:45:11.130Z,10.91
2023-01-04T01:47:45.804Z,10.86
2023-01-04T01:50:31.342Z,10.82
2023-01-04T01:53:00.653Z,10.79
2023-01-04T01:55:30.559Z,10.75
2023-01-04T01:57:58.653Z,10.71
2023-01-04T02:00:25.739Z,10.68
2023-01-04T02:03:19.405Z,10.65
2023-01-04T02:05:50.202Z,10.62
2023-01-04T02:08:18.937Z,10.57
2023-01-04T02:10:45.611Z,10.56
2023-01-04T02:13:15.599Z,10.56
2023-01-04T02:15:53.180Z,10.55
2023-01-04T02:18:28.662Z,10.53
2023-01-04T02:21:15.560Z,10.51
2023-01-04T02:23:54.145Z,10.47
2023-01-04T02:27:01.739Z,10.43
2023-01-04T02:29:29.266Z,10.42
2023-01-04T02:32:06.459Z,10.38
2023-01-04T02:34:59.254Z,10.39
2023-01-04T02:37:41.455Z,10.38
2023-01-04T02:40:23.774Z,10.38
2023-01-04T02:43:35.133Z,10.36
2023-01-04T02:46:12.297Z,10.35
2023-01-04T02:48:58.972Z,10.37
2023-01-04T02:51:34.190Z,10.40
2023-01-04T02:54:08.952Z,10.44
2023-01-04T02:56:47.878Z,10.47
2023-01-04T02:59:32.516Z,10.47
2023-01-04T03:02:41.731Z,10.46
2023-01-04T03:05:33.157Z,10.40
2023-01-04T03:08:12.245Z,10.36
2023-01-04T03:10:42.580Z,10.33
2023-01-04T03:13:17.956Z,10.31
2023-01-04T03:16:01.128Z,10.28
2023-01-04T03:18:31.744Z,10.25
2023-01-04T03:21:01.228Z,10.23
2023-01-04T03:23:53.611Z,10.25
2023-01-04T03:26:50.645Z,10.26
2023-01-04T03:29:49.728Z,10.27
2023-01-04T03:32:45.040Z,10.27
2023-01-04T03:35:23.845Z,10.27
2023-01-04T03:38:18.211Z,10.29
2023-01-04T03:41:19.455Z,10.33
2023-01-04T03:44:14.390Z,10.34
2023-01-04T03:47:11.451Z,10.38
2023-01-04T03:49:47.095Z,10.43
2023-01-04T03:52:15.561Z,10.44
2023-01-04T03:54:48.129Z,10.45
2023-01-04T03:57:16.929Z,10.49
2023-01-04T03:59:53.342Z,10.53
2023-01-04T04:02:24.872Z,10.57
2023-01-04T04:05:10.705Z,10.56
2023-01-04T04:07:56.022Z,10.59
2023-01-04T04:10:22.681Z,10.61
2023-01-04T04:12:49.385Z,10.62
2023-01-04T04:15:16.348Z,10.61
2023-01-04T04:17:42.965Z,10.60
2023-01-04T04:20:10.654Z,10.59
2023-01-04T04:22:37.270Z,10.61
2023-01-04T04:25:04.155Z,10.61
2023-01-04T04:27:30.816Z,10.62
2023-01-04T04:29:57.605Z,10.62
2023-01-04T04:32:24.218Z,10.62
2023-01-04T04:34:50.817Z,10.60
2023-01-04T04:37:17.418Z,10.60
2023-01-04T04:39:44.074Z,10.57
2023-01-04T04:42:10.723Z,10.54
2023-01-04T04:44:37.338Z,10.52
2023-01-04T04:47:03.989Z,10.46
2023-01-04T04:49:30.672Z,10.41
2023-01-04T04:51:57.394Z,10.37
2023-01-04T04:54:23.992Z,10.33
2023-01-04T04:56:50.874Z,10.32
2023-01-04T04:59:17.738Z,10.32
2023-01-04T05:01:44.459Z,10.30
2023-01-04T05:04:16.600Z,10.28
2023-01-04T05:06:43.668Z,10.23
2023-01-04T05:09:11.686Z,10.23
2023-01-04T05:11:56.802Z,10.21
2023-01-04T05:14:23.460Z,10.20
2023-01-04T05:16:50.226Z,10.19
2023-01-04T05:19:17.070Z,10.20
2023-01-04T05:21:43.677Z,10.20
2023-01-04T05:24:13.506Z,10.18
2023-01-04T05:26:40.613Z,10.17
2023-01-04T05:29:29.131Z,10.19
2023-01-04T05:31:55.879Z,10.16
2023-01-04T05:34:22.665Z,10.13
2023-01-04T05:36:49.306Z,10.10
2023-01-04T05:39:15.932Z,10.08
2023-01-04T05:42:01.478Z,10.05
2023-01-04T05:44:28.176Z,10.04
2023-01-04T05:47:03.449Z,10.02
2023-01-04T05:49:30.120Z,10.01
2023-01-04T05:51:56.748Z,9.99
2023-01-04T05:54:23.366Z,9.97
2023-01-04T05:56:50.042Z,9.98
2023-01-04T05:59:16.900Z,9.98
2023-01-04T06:01:43.638Z,9.97
2023-01-04T06:04:10.397Z,9.99
2023-01-04T06:06:37.087Z,10.01
2023-01-04T06:09:03.779Z,10.02
2023-01-04T06:11:30.387Z,10.01
2023-01-04T06:13:57.020Z,10.01
2023-01-04T06:16:23.948Z,10.02
2023-01-04T06:18:50.722Z,10.01
2023-01-04T06:21:17.383Z,10.01
2023-01-04T06:23:43.988Z,10.01
2023-01-04T06:26:10.593Z,10.01
2023-01-04T06:28:40.884Z,10.02
2023-01-04T06:31:09.915Z,10.03
2023-01-04T06:33:36.798Z,10.02
2023-01-04T06:36:03.738Z,9.99
2023-01-04T06:38:31.087Z,9.94
2023-01-04T06:40:57.709Z,9.92
2023-01-04T06:43:25.200Z,9.92
2023-01-04T06:45:52.240Z,9.91
2023-01-04T06:48:18.908Z,9.91
2023-01-04T06:50:45.742Z,9.90
2023-01-04T06:53:12.502Z,9.91
2023-01-04T06:55:39.137Z,9.92
2023-01-04T06:58:05.754Z,9.94
2023-01-04T07:00:32.372Z,9.98
2023-01-04T07:03:12.776Z,9.96
2023-01-04T07:05:41.805Z,9.98
2023-01-04T07:08:09.701Z,9.95
2023-01-04T07:10:36.700Z,9.95
2023-01-04T07:13:04.097Z,9.97
2023-01-04T07:15:38.788Z,9.92
2023-01-04T07:18:08.579Z,9.90
2023-01-04T07:20:35.599Z,9.89
2023-01-04T07:23:02.244Z,9.91
2023-01-04T07:25:28.844Z,9.92
2023-01-04T07:27:55.827Z,9.94
2023-01-04T07:30:23.980Z,9.95
2023-01-04T07:32:54.934Z,9.95
2023-01-04T07:35:22.827Z,9.95
2023-01-04T07:37:55.560Z,9.93
2023-01-04T07:40:24.995Z,9.94
2023-01-04T07:42:57.201Z,9.94
2023-01-04T07:45:24.124Z,9.93
2023-01-04T07:47:50.782Z,9.95
2023-01-04T07:50:17.419Z,9.94
2023-01-04T07:52:43.986Z,9.93
2023-01-04T07:55:10.769Z,9.94
2023-01-04T07:57:37.398Z,9.92
2023-01-04T08:00:05.496Z,9.94
2023-01-04T08:02:32.173Z,9.93
2023-01-04T08:04:59.012Z,9.91
2023-01-04T08:07:25.740Z,9.90
2023-01-04T08:09:52.354Z,9.89
2023-01-04T08:12:18.960Z,9.88
2023-01-04T08:14:45.624Z,9.88
2023-01-04T08:17:12.263Z,9.87
2023-01-04T08:19:40.076Z,9.89
2023-01-04T08:22:06.702Z,9.90
2023-01-04T08:24:33.306Z,9.91
2023-01-04T08:26:59.918Z,9.92
2023-01-04T08:29:31.154Z,9.91
2023-01-04T08:32:01.271Z,9.91
2023-01-04T08:34:27.865Z,9.91
2023-01-04T08:36:54.707Z,9.91
2023-01-04T08:39:21.864Z,9.91
2023-01-04T08:42:19.191Z,9.93
2023-01-04T08:44:38.472Z,9.94
2023-01-04T08:47:05.464Z,9.95
2023-01-04T08:49:32.281Z,9.94
2023-01-04T08:51:58.892Z,9.94
2023-01-04T08:54:25.554Z,9.93
2023-01-04T08:56:52.150Z,9.93
2023-01-04T08:59:18.788Z,9.93
2023-01-04T09:01:46.221Z,9.94
2023-01-04T09:04:13.360Z,9.93
2023-01-04T09:06:40.212Z,9.93
2023-01-04T09:09:06.978Z,9.93
2023-01-04T09:11:33.634Z,9.93
2023-01-04T09:14:09.376Z,9.94
2023-01-04T09:16:39.991Z,9.93
2023-01-04T09:19:07.916Z,9.94
2023-01-04T09:21:34.654Z,9.95
2023-01-04T09:24:01.466Z,9.94
2023-01-04T09:26:28.221Z,9.93
2023-01-04T09:28:56.249Z,9.94
2023-01-04T09:31:25.805Z,9.94
2023-01-04T09:36:40.199Z,9.92
2023-01-04T09:39:06.901Z,9.92
2023-01-04T09:41:43.055Z,9.92
2023-01-04T09:44:09.609Z,9.95
2023-01-04T09:47:01.447Z,9.96
2023-01-04T09:49:38.667Z,9.97
2023-01-04T09:52:11.536Z,9.98
2023-01-04T09:54:46.624Z,9.99
2023-01-04T09:57:21.420Z,10.00
2023-01-04T09:59:51.580Z,10.01
2023-01-04T10:02:25.755Z,10.00
2023-01-04T10:04:52.818Z,9.99
2023-01-04T10:07:33.679Z,9.97
2023-01-04T10:10:01.608Z,9.98
2023-01-04T10:12:59.980Z,10.01
2023-01-04T10:15:29.619Z,10.05
2023-01-04T10:21:29.449Z,10.04
2023-01-04T10:24:22.544Z,10.01
2023-01-04T10:26:51.719Z,10.01
2023-01-04T10:29:33.690Z,10.00
2023-01-04T10:32:14.594Z,10.01
2023-01-04T10:34:46.479Z,10.02
2023-01-04T10:37:38.830Z,10.10
2023-01-04T10:40:13.801Z,10.15
2023-01-04T10:43:21.920Z,10.19
2023-01-04T10:46:02.437Z,10.20
2023-01-04T10:48:56.798Z,10.23
2023-01-04T10:51:49.301Z,10.27
2023-01-04T10:54:29.499Z,10.33
2023-01-04T10:57:14.608Z,10.39
2023-01-04T10:59:50.001Z,10.43
2023-01-04T11:02:46.584Z,10.48
2023-01-04T11:05:30.853Z,10.48
2023-01-04T11:08:15.920Z,10.49
2023-01-04T11:10:48.334Z,10.52
2023-01-04T11:13:15.036Z,10.56
2023-01-04T11:15:43.225Z,10.60
2023-01-04T11:18:11.738Z,10.64
2023-01-04T11:20:40.008Z,10.68
2023-01-04T11:23:16.193Z,10.70
2023-01-04T11:26:13.357Z,10.70
2023-01-04T11:29:07.275Z,10.69
2023-01-04T11:31:37.062Z,10.69
2023-01-04T11:34:04.521Z,10.72
2023-01-04T11:36:31.065Z,10.74
2023-01-04T11:38:58.725Z,10.79
2023-01-04T11:41:26.325Z,10.80
2023-01-04T11:43:58.714Z,10.85
2023-01-04T11:46:27.257Z,10.90
2023-01-04T11:48:54.140Z,11.00
2023-01-04T11:51:26.621Z,11.05
2023-01-04T11:54:14.978Z,11.01
2023-01-04T11:57:05.810Z,10.97
2023-01-04T11:59:37.570Z,10.91
2023-01-04T12:02:58.594Z,10.90
2023-01-04T12:05:29.106Z,10.91
2023-01-04T12:07:57.889Z,10.96
2023-01-04T12:10:27.222Z,10.93
2023-01-04T12:12:55.580Z,10.94
2023-01-04T12:15:45.887Z,10.88
2023-01-04T12:18:27.081Z,10.83
2023-01-04T12:20:53.737Z,10.85
2023-01-04T12:23:20.604Z,10.87
2023-01-04T12:25:51.323Z,10.87
2023-01-04T12:28:36.311Z,10.86
2023-01-04T12:31:33.946Z,10.92
2023-01-04T12:34:23.444Z,10.91
2023-01-04T12:37:05.361Z,10.85
2023-01-04T12:39:47.139Z,10.79
2023-01-04T12:42:21.585Z,10.75
2023-01-04T12:44:52.097Z,10.75
2023-01-04T12:47:37.501Z,10.78
2023-01-04T12:50:13.751Z,10.82
2023-01-04T12:53:02.384Z,10.85
2023-01-04T12:55:31.585Z,10.87
2023-01-04T12:58:42.319Z,10.88
2023-01-04T13:01:28.531Z,10.91
2023-01-04T13:04:05.543Z,10.92
2023-01-04T13:06:42.649Z,10.97
2023-01-04T13:09:23.385Z,11.00
2023-01-04T13:12:08.257Z,11.09
2023-01-04T13:14:45.068Z,11.12
2023-01-04T13:17:17.641Z,11.13
2023-01-04T13:19:45.505Z,11.10
2023-01-04T13:22:23.395Z,11.07
2023-01-04T13:24:56.552Z,11.04
2023-01-04T13:27:24.852Z,11.03
2023-01-04T13:29:52.325Z,11.03
2023-01-04T13:32:23.673Z,10.99
2023-01-04T13:35:13.962Z,10.92
2023-01-04T13:37:45.069Z,10.83
2023-01-04T13:40:20.454Z,10.75
2023-01-04T13:42:50.565Z,10.68
2023-01-04T13:46:05.543Z,10.61
2023-01-04T13:48:38.400Z,10.55
2023-01-04T13:51:17.614Z,10.52
2023-01-04T13:54:00.818Z,10.52
2023-01-04T13:56:30.626Z,10.54
2023-01-04T13:58:57.730Z,10.56
2023-01-04T14:01:35.256Z,10.57
2023-01-04T14:04:08.642Z,10.58
2023-01-04T14:06:47.781Z,10.60
2023-01-04T14:09:29.434Z,10.59
2023-01-04T14:12:08.094Z,10.57
2023-01-04T14:14:59.206Z,10.57
2023-01-04T14:17:54.368Z,10.55
2023-01-04T14:20:22.788Z,10.54
2023-01-04T14:22:56.184Z,10.55
2023-01-04T14:25:38.351Z,10.55
2023-01-04T14:28:28.683Z,10.54
2023-01-04T14:31:01.572Z,10.53
2023-01-04T14:33:31.785Z,10.54
2023-01-04T14:36:10.992Z,10.55
2023-01-04T14:38:45.042Z,10.57
2023-01-04T14:41:32.931Z,10.57
2023-01-04T14:43:59.515Z,10.57
2023-01-04T14:46:28.031Z,10.57
2023-01-04T14:48:55.300Z,10.55
2023-01-04T14:51:27.205Z,10.53
2023-01-04T14:53:54.902Z,10.52
2023-01-04T14:56:21.655Z,10.52
2023-01-04T14:58:48.322Z,10.50
2023-01-04T15:01:15.118Z,10.50
2023-01-04T15:03:41.881Z,10.50
2023-01-04T15:06:08.643Z,10.51
2023-01-04T15:08:35.201Z,10.51
2023-01-04T15:11:02.565Z,10.52
2023-01-04T15:13:36.755Z,10.51
2023-01-04T15:16:06.581Z,10.51
2023-01-04T15:18:33.316Z,10.51
2023-01-04T15:20:59.957Z,10.50
2023-01-04T15:23:26.702Z,10.49
2023-01-04T15:25:53.433Z,10.47
2023-01-04T15:28:21.775Z,10.48
2023-01-04T15:30:49.414Z,10.48
2023-01-04T15:33:16.067Z,10.49
2023-01-04T15:35:43.853Z,10.48
2023-01-04T15:38:15.971Z,10.50
2023-01-04T15:40:44.576Z,10.49
2023-01-04T15:43:11.798Z,10.49
2023-01-04T15:45:39.541Z,10.50
2023-01-04T15:48:09.499Z,10.50
2023-01-04T15:50:40.660Z,10.52
2023-01-04T15:53:08.530Z,10.51
2023-01-04T15:55:37.138Z,10.51
2023-01-04T15:58:05.012Z,10.48
2023-01-04T16:00:32.999Z,10.46
2023-01-04T16:03:00.293Z,10.42
2023-01-04T16:05:27.806Z,10.36
2023-01-04T16:07:54.439Z,10.32
2023-01-04T16:10:21.225Z,10.30
2023-01-04T16:12:54.677Z,10.27
2023-01-04T16:15:23.148Z,10.26
2023-01-04T16:17:50.518Z,10.22
2023-01-04T16:20:18.895Z,10.20
2023-01-04T16:22:45.831Z,10.17
2023-01-04T16:25:13.213Z,10.13
2023-01-04T16:27:42.302Z,10.09
2023-01-04T16:30:13.637Z,10.06
2023-01-04T16:32:42.627Z,10.02
2023-01-04T16:35:10.615Z,10.01
2023-01-04T16:37:37.485Z,10.02
2023-01-04T16:40:06.761Z,10.04
2023-01-04T16:42:33.892Z,10.04
2023-01-04T16:45:00.808Z,10.02
2023-01-04T16:47:27.773Z,9.98
2023-01-04T16:49:54.674Z,9.92
2023-01-04T16:52:21.822Z,9.89
2023-01-04T16:54:49.179Z,9.88
2023-01-04T16:57:15.840Z,9.90
2023-01-04T16:59:42.541Z,9.94
2023-01-04T17:02:13.157Z,9.98
2023-01-04T17:04:41.080Z,10.00
2023-01-04T17:07:07.740Z,10.03
2023-01-04T17:09:35.131Z,10.06
2023-01-04T17:12:44.981Z,10.09
2023-01-04T17:15:07.771Z,10.09
2023-01-04T17:17:37.699Z,10.09
2023-01-04T17:20:06.389Z,10.08
2023-01-04T17:22:35.326Z,10.07
2023-01-04T17:25:03.228Z,10.07
2023-01-04T17:27:29.900Z,10.04
2023-01-04T17:29:56.516Z,10.04
2023-01-04T17:32:24.333Z,10.04
2023-01-04T17:34:51.913Z,10.04
2023-01-04T17:37:18.582Z,10.05
2023-01-04T17:39:45.189Z,10.05
2023-01-04T17:42:11.827Z,10.06
2023-01-04T17:44:38.490Z,10.05
2023-01-04T17:47:05.213Z,10.04
2023-01-04T17:49:32.651Z,10.04
2023-01-04T17:52:00.021Z,10.03
2023-01-04T17:54:27.082Z,10.02
2023-01-04T17:56:54.006Z,10.02
2023-01-04T17:59:20.776Z,10.02
2023-01-04T18:01:48.053Z,10.02
2023-01-04T18:04:14.889Z,9.99
2023-01-04T18:06:41.582Z,9.98
2023-01-04T18:09:09.251Z,9.97
2023-01-04T18:11:36.630Z,9.99
2023-01-04T18:14:06.333Z,9.99
2023-01-04T18:16:56.587Z,10.00
2023-01-04T18:19:26.082Z,10.00
2023-01-04T18:21:53.002Z,9.98
2023-01-04T18:24:37.151Z,9.96
2023-01-04T18:27:23.082Z,9.93
2023-01-04T18:29:51.712Z,9.94
2023-01-04T18:32:18.563Z,9.92
2023-01-04T18:34:45.547Z,9.94
2023-01-04T18:37:12.179Z,9.95
2023-01-04T18:39:38.895Z,9.96
2023-01-04T18:42:05.526Z,9.98
2023-01-04T18:44:33.926Z,9.95
2023-01-04T18:47:04.124Z,9.94
2023-01-04T18:49:31.106Z,9.89
2023-01-04T18:51:57.757Z,9.86
2023-01-04T18:54:24.590Z,9.82
2023-01-04T18:56:55.741Z,9.80
2023-01-04T18:59:31.034Z,9.83
2023-01-04T19:02:02.530Z,9.81
2023-01-04T19:04:31.437Z,9.81
2023-01-04T19:06:58.282Z,9.78
2023-01-04T19:09:25.023Z,9.75
2023-01-04T19:11:51.826Z,9.70
2023-01-04T19:14:18.611Z,9.63
2023-01-04T19:16:45.352Z,9.59
2023-01-04T19:19:12.163Z,9.56
2023-01-04T19:21:39.206Z,9.52
2023-01-04T19:24:06.552Z,9.51
2023-01-04T19:26:33.988Z,9.52
2023-01-04T19:29:00.694Z,9.52
2023-01-04T19:31:27.555Z,9.55
2023-01-04T19:33:55.118Z,9.60
2023-01-04T19:36:22.403Z,9.65
2023-01-04T19:38:49.072Z,9.68
2023-01-04T19:41:29.123Z,9.72
2023-01-04T19:44:03.286Z,9.73
2023-01-04T19:46:31.813Z,9.70
2023-01-04T19:48:58.674Z,9.64
2023-01-04T19:51:25.748Z,9.58
2023-01-04T19:53:52.428Z,9.54
2023-01-04T19:56:19.245Z,9.52
2023-01-04T19:58:45.973Z,9.47
2023-01-04T20:01:20.886Z,9.44
2023-01-04T20:03:48.523Z,9.37
2023-01-04T20:06:16.639Z,9.34
2023-01-04T20:08:43.935Z,9.29
2023-01-04T20:11:11.764Z,9.27
2023-01-04T20:13:39.691Z,9.25
2023-01-04T20:16:06.854Z,9.23
2023-01-04T20:18:34.590Z,9.21
2023-01-04T20:21:01.690Z,9.19
2023-01-04T20:23:28.344Z,9.18
2023-01-04T20:25:55.517Z,9.15
2023-01-04T20:28:24.428Z,9.14
2023-01-04T20:31:08.526Z,9.12
2023-01-04T20:33:35.627Z,9.11
2023-01-04T20:36:13.835Z,9.10
2023-01-04T20:38:42.724Z,9.09
2023-01-04T20:41:14.120Z,9.09
2023-01-04T20:43:40.997Z,9.09
2023-01-04T20:46:15.295Z,9.08
2023-01-04T20:48:42.432Z,9.07
2023-01-04T20:51:11.519Z,9.06
2023-01-04T20:53:38.526Z,9.04
2023-01-04T20:56:13.380Z,9.01
2023-01-04T20:58:40.131Z,8.99
2023-01-04T21:01:07.680Z,8.98
2023-01-04T21:03:35.519Z,9.01
2023-01-04T21:06:05.228Z,9.02
2023-01-04T21:08:32.212Z,9.05
2023-01-04T21:10:59.430Z,9.08
2023-01-04T21:13:27.701Z,9.08
2023-01-04T21:15:55.294Z,9.09
2023-01-04T21:18:24.271Z,9.09
2023-01-04T21:20:51.057Z,9.10
2023-01-04T21:23:25.113Z,9.11
2023-01-04T21:25:53.469Z,9.10
2023-01-04T21:28:22.205Z,9.10
2023-01-04T21:30:49.853Z,9.08
2023-01-04T21:33:17.443Z,9.08
2023-01-04T21:35:44.072Z,9.07
2023-01-04T21:38:11.632Z,9.04
2023-01-04T21:40:41.826Z,9.03
2023-01-04T21:43:15.933Z,9.00
2023-01-04T21:45:42.835Z,8.99
2023-01-04T21:48:09.917Z,8.97
2023-01-04T21:50:37.059Z,8.97
2023-01-04T21:53:03.755Z,8.97
2023-01-04T21:55:34.841Z,8.98
2023-01-04T21:58:02.717Z,8.96
2023-01-04T22:00:29.471Z,8.94
2023-01-04T22:02:56.282Z,8.93
2023-01-04T22:05:23.092Z,8.90
2023-01-04T22:07:49.753Z,8.89
2023-01-04T22:10:16.393Z,8.88
2023-01-04T22:12:44.980Z,8.84
2023-01-04T22:15:11.807Z,8.83
2023-01-04T22:17:38.559Z,8.83
2023-01-04T22:20:05.706Z,8.83
2023-01-04T22:22:32.404Z,8.81
2023-01-04T22:24:59.073Z,8.80
2023-01-04T22:27:26.751Z,8.80
2023-01-04T22:29:53.417Z,8.79
2023-01-04T22:32:21.033Z,8.78
2023-01-04T22:34:48.063Z,8.77
2023-01-04T22:37:15.401Z,8.76
2023-01-04T22:39:42.077Z,8.77
2023-01-04T22:42:08.688Z,8.79
2023-01-04T22:44:35.294Z,8.80
2023-01-04T22:47:02.232Z,8.82
2023-01-04T22:49:29.116Z,8.80
2023-01-04T22:51:57.277Z,8.82
2023-01-04T22:54:24.143Z,8.85
2023-01-04T22:56:50.893Z,8.88
2023-01-04T22:59:17.872Z,8.92
2023-01-04T23:01:44.701Z,8.95
2023-01-04T23:04:16.253Z,8.99
2023-01-04T23:06:43.790Z,9.02
2023-01-04T23:09:14.053Z,9.04
2023-01-04T23:11:41.232Z,9.06
2023-01-04T23:14:12.962Z,9.07
2023-01-04T23:16:40.335Z,9.07
2023-01-04T23:19:07.810Z,9.06
2023-01-04T23:21:35.496Z,9.04
2023-01-04T23:24:02.693Z,9.03
2023-01-04T23:26:31.407Z,9.02
2023-01-04T23:29:00.003Z,9.02
2023-01-04T23:31:29.131Z,9.02
2023-01-04T23:33:59.310Z,8.98
2023-01-04T23:36:29.418Z,8.93
2023-01-04T23:38:58.519Z,8.92
2023-01-04T23:41:44.664Z,8.90
2023-01-04T23:44:19.762Z,8.85
2023-01-04T23:46:51.025Z,8.81
2023-01-04T23:49:17.745Z,8.76
2023-01-04T23:51:44.595Z,8.73
2023-01-04T23:54:11.375Z,8.70
2023-01-04T23:56:39.365Z,8.64
2023-01-04T23:59:06.864Z,8.60
